Time;durP1;ratioP1;P1;durP2;ratioP2;P2;SDS_P1;SDS_P2;PMS_P1;PMS_P2;Temp;Humidity;BMP_temperature;BMP_pressure;BME280_temperature;BME280_humidity;BME280_pressure;Samples;Min_cycle;Max_cycle;Signal;HPM_P1;HPM_P2
2021/12/20 00:02:01;;;;;;;7.95;2.50;;;;;;;6.74;92.72;102865.56;5034294;28;20033;-43
2021/12/20 00:04:26;;;;;;;14.73;1.88;;;;;;;6.81;90.61;102864.16;5011125;28;20033;-44
2021/12/20 00:06:51;;;;;;;24.98;3.40;;;;;;;6.86;89.36;102858.50;5014408;28;20052;-42
2021/12/20 00:09:17;;;;;;;13.80;1.70;;;;;;;6.92;87.62;102866.94;5014090;28;20021;-45
2021/12/20 00:11:42;;;;;;;14.60;3.17;;;;;;;6.95;87.01;102871.22;5016138;28;20057;-43
2021/12/20 00:14:08;;;;;;;12.93;2.10;;;;;;;6.87;87.33;102852.16;5033861;28;20025;-43
2021/12/20 00:16:33;;;;;;;16.92;2.42;;;;;;;6.89;87.35;102852.94;5033914;28;20109;-42
2021/12/20 00:18:59;;;;;;;13.13;2.55;;;;;;;6.88;86.57;102854.75;5033666;28;20045;-44
2021/12/20 00:21:24;;;;;;;19.08;2.40;;;;;;;6.93;85.96;102857.13;5033808;28;20530;-42
2021/12/20 00:23:50;;;;;;;13.23;2.22;;;;;;;6.97;85.83;102859.44;5033319;28;20084;-43
2021/12/20 00:26:16;;;;;;;17.13;2.53;;;;;;;6.93;85.89;102857.13;5032795;28;20090;-42
2021/12/20 00:28:42;;;;;;;25.25;3.35;;;;;;;6.94;85.26;102850.78;5033401;28;20068;-42
2021/12/20 00:31:07;;;;;;;21.83;3.38;;;;;;;6.96;83.78;102840.81;5033521;28;20068;-42
2021/12/20 00:33:33;;;;;;;15.50;2.33;;;;;;;6.93;84.23;102841.91;5040444;28;20044;-42
2021/12/20 00:36:06;;;;;;;19.00;2.75;;;;;;;6.91;84.44;102849.19;5037108;28;20335;-43
2021/12/20 00:41:16;;;;;;;24.70;3.33;;;;;;;6.85;84.79;102854.97;5032989;28;20107;-42
2021/12/20 00:43:41;;;;;;;19.65;2.78;;;;;;;6.79;84.94;102842.88;5032765;28;20033;-43
2021/12/20 00:46:07;;;;;;;16.63;2.72;;;;;;;6.84;84.29;102847.03;5031667;28;20029;-43
2021/12/20 00:48:32;;;;;;;24.95;2.40;;;;;;;6.78;84.47;102835.81;5032839;28;20131;-42
2021/12/20 00:50:57;;;;;;;19.20;2.60;;;;;;;6.76;83.80;102832.38;5032547;28;20040;-42
2021/12/20 00:53:23;;;;;;;29.48;4.05;;;;;;;6.88;82.74;102845.88;5047616;28;20152;-43
2021/12/20 00:55:48;;;;;;;23.42;2.38;;;;;;;6.89;82.58;102835.03;5031328;28;20025;-43
2021/12/20 00:58:14;;;;;;;19.10;2.60;;;;;;;6.81;82.88;102842.75;5031108;28;20120;-44
2021/12/20 01:00:42;;;;;;;18.10;2.53;;;;;;;6.80;82.51;102836.56;5030559;28;20052;-42
2021/12/20 01:03:07;;;;;;;;;;;;;;;6.79;82.65;102840.22;5031362;28;20375;-42
2021/12/20 01:05:34;;;;;;;21.63;2.30;;;;;;;6.84;82.29;102833.66;5032175;28;19913;-43
2021/12/20 01:08:02;;;;;;;15.68;2.78;;;;;;;6.82;82.30;102833.78;5032562;28;20388;-43
2021/12/20 01:10:29;;;;;;;;;;;;;;;6.72;83.67;102830.88;5033014;28;20029;-44
2021/12/20 01:12:55;;;;;;;24.15;2.75;;;;;;;6.78;83.10;102826.91;5032287;28;19960;-43
2021/12/20 01:15:24;;;;;;;20.00;1.95;;;;;;;6.78;82.59;102827.78;5032604;28;20502;-43
2021/12/20 01:17:51;;;;;;;23.60;2.90;;;;;;;6.74;82.56;102834.31;5032401;28;20049;-44
2021/12/20 01:20:17;;;;;;;24.98;2.47;;;;;;;6.73;82.85;102835.25;5031139;28;20036;-44
2021/12/20 01:22:44;;;;;;;22.83;2.45;;;;;;;6.72;82.76;102827.38;5030782;28;20026;-42
2021/12/20 01:25:09;;;;;;;21.38;2.17;;;;;;;6.68;82.27;102829.38;5030976;28;20068;-44
2021/12/20 01:27:35;;;;;;;33.65;3.05;;;;;;;6.72;80.61;102825.53;5031991;28;20057;-44
2021/12/20 01:30:00;;;;;;;26.65;3.13;;;;;;;6.76;80.18;102827.03;5032500;28;20025;-44
2021/12/20 01:32:26;;;;;;;24.42;2.67;;;;;;;6.75;80.47;102836.03;5032021;28;20061;-44
2021/12/20 01:34:51;;;;;;;24.65;4.20;;;;;;;6.76;78.80;102819.00;5031832;28;20029;-43
2021/12/20 01:37:16;;;;;;;32.92;3.65;;;;;;;6.71;79.03;102826.47;5032296;28;20420;-43
2021/12/20 01:39:42;;;;;;;31.50;3.58;;;;;;;6.75;78.35;102828.00;5032125;28;20050;-43
2021/12/20 01:42:08;;;;;;;31.60;2.97;;;;;;;6.76;77.52;102820.81;5032007;28;20045;-43
2021/12/20 01:44:35;;;;;;;28.27;4.10;;;;;;;6.75;77.52;102811.94;5031130;28;20125;-43
2021/12/20 01:47:02;;;;;;;26.08;3.63;;;;;;;6.76;77.80;102821.66;5032629;28;20032;-44
2021/12/20 01:49:30;;;;;;;24.23;4.78;;;;;;;6.76;78.13;102824.34;5032446;28;20117;-43
2021/12/20 01:54:21;;;;;;;26.58;3.47;;;;;;;6.63;78.82;102828.84;5032133;28;20275;-43
2021/12/20 01:56:46;;;;;;;29.02;3.88;;;;;;;6.58;80.31;102820.28;5031921;28;20022;-43
2021/12/20 01:59:12;;;;;;;38.13;5.45;;;;;;;6.63;78.84;102834.19;5030886;28;20115;-43
2021/12/20 02:01:38;;;;;;;20.20;2.78;;;;;;;6.65;78.68;102818.91;5031890;28;20086;-43
2021/12/20 02:04:07;;;;;;;28.30;4.05;;;;;;;6.60;79.27;102829.06;5031919;28;20025;-43
2021/12/20 02:06:38;;;;;;;26.80;2.88;;;;;;;6.57;79.76;102823.94;5031989;28;20409;-42
2021/12/20 02:09:09;;;;;;;30.33;3.00;;;;;;;6.56;79.86;102830.25;5032252;28;20033;-42
2021/12/20 02:11:35;;;;;;;28.35;2.78;;;;;;;6.60;79.33;102834.41;5032485;28;20723;-42
2021/12/20 02:14:01;;;;;;;28.23;3.10;;;;;;;6.67;78.71;102827.69;5036580;28;20481;-42
2021/12/20 02:16:26;;;;;;;25.17;3.35;;;;;;;6.64;78.55;102817.19;5036569;28;20059;-42
2021/12/20 02:18:52;;;;;;;36.92;4.40;;;;;;;6.56;79.90;102806.19;5036146;28;20030;-43
2021/12/20 02:21:17;;;;;;;42.10;3.85;;;;;;;6.52;80.47;102810.88;5033909;28;20026;-42
2021/12/20 02:23:43;;;;;;;43.58;4.80;;;;;;;6.55;79.93;102813.31;5019055;28;20071;-44
2021/12/20 02:26:11;;;;;;;22.88;2.30;;;;;;;6.65;78.90;102810.88;5017792;28;20038;-43
2021/12/20 02:28:41;;;;;;;30.20;2.90;;;;;;;6.66;78.57;102814.41;5034535;28;20017;-43
2021/12/20 02:39:10;;;;;;;27.65;2.90;;;;;;;6.68;76.43;102810.66;5035245;28;20512;-42
2021/12/20 02:41:36;;;;;;;38.72;3.50;;;;;;;6.60;77.41;102802.31;5035118;28;20033;-44
2021/12/20 02:44:05;;;;;;;17.33;2.67;;;;;;;6.57;78.39;102807.88;5035353;28;20435;-43
2021/12/20 02:49:12;;;;;;;30.85;3.60;;;;;;;6.52;78.65;102799.31;5035703;28;20481;-42
2021/12/20 02:51:38;;;;;;;21.58;2.95;;;;;;;6.50;79.65;102798.56;5034732;28;20036;-42
2021/12/20 02:54:05;;;;;;;29.83;3.75;;;;;;;6.48;79.93;102797.84;5035182;28;20022;-43
2021/12/20 02:56:32;;;;;;;28.15;3.28;;;;;;;6.50;79.46;102796.78;5035200;28;20032;-42
2021/12/20 02:58:57;;;;;;;20.30;2.50;;;;;;;6.52;79.29;102799.31;5033669;28;20025;-42
2021/12/20 03:01:23;;;;;;;18.90;2.45;;;;;;;6.53;78.96;102791.19;5034358;28;20035;-43
2021/12/20 03:03:51;;;;;;;26.48;3.58;;;;;;;6.59;78.32;102797.94;5033516;28;20026;-42
2021/12/20 03:06:23;;;;;;;;;;;;;;;6.55;78.62;102793.75;5035396;28;20021;-43
2021/12/20 03:08:52;;;;;;;24.95;2.70;;;;;;;6.55;79.05;102796.44;5035243;28;19909;-41
2021/12/20 03:11:20;;;;;;;27.13;3.25;;;;;;;6.55;78.57;102801.78;5033681;28;20029;-42
2021/12/20 03:13:49;;;;;;;30.70;2.92;;;;;;;6.52;79.02;102804.66;5034642;28;20387;-43
2021/12/20 03:16:14;;;;;;;36.42;3.63;;;;;;;6.59;77.72;102806.81;5034536;28;20037;-43
2021/12/20 03:18:39;;;;;;;32.08;3.08;;;;;;;6.62;77.41;102800.38;5034847;28;20179;-42
2021/12/20 03:21:05;;;;;;;35.65;4.70;;;;;;;6.57;77.42;102795.34;5034483;28;20028;-44
2021/12/20 03:23:30;;;;;;;21.42;3.63;;;;;;;6.59;77.15;102797.94;5015953;28;20030;-43
2021/12/20 03:25:56;;;;;;;37.30;3.65;;;;;;;6.62;77.06;102783.50;5034520;28;20509;-43
2021/12/20 03:28:21;;;;;;;23.92;3.00;;;;;;;6.63;76.71;102785.19;5033227;28;20017;-43
2021/12/20 03:30:47;;;;;;;34.85;3.40;;;;;;;6.58;77.13;102793.53;5034170;28;20052;-43
2021/12/20 03:33:12;;;;;;;29.92;3.50;;;;;;;6.58;77.28;102790.84;5034530;28;20064;-43
2021/12/20 03:35:38;;;;;;;30.67;3.60;;;;;;;6.54;77.21;102782.19;5049535;28;20091;-43
2021/12/20 03:38:03;;;;;;;23.30;2.30;;;;;;;6.55;76.55;102789.25;5034186;28;20050;-41
2021/12/20 03:40:29;;;;;;;28.77;2.97;;;;;;;6.52;77.80;102793.97;5033953;28;20034;-43
2021/12/20 03:42:55;;;;;;;21.20;2.80;;;;;;;6.53;77.47;102790.31;5034267;28;20029;-43
2021/12/20 03:45:20;;;;;;;27.33;3.15;;;;;;;6.44;78.78;102790.97;5046441;28;20025;-42
2021/12/20 03:47:45;;;;;;;27.25;2.97;;;;;;;6.47;78.44;102796.09;5049793;28;20026;-43
2021/12/20 03:50:12;;;;;;;32.65;3.30;;;;;;;6.44;78.86;102786.47;5034236;28;20030;-43
2021/12/20 03:52:38;;;;;;;31.33;3.50;;;;;;;6.43;78.65;102786.59;5033759;28;20085;-42
2021/12/20 03:55:08;;;;;;;35.92;3.70;;;;;;;6.44;78.73;102782.94;5049269;28;20052;-42
2021/12/20 03:57:33;;;;;;;29.63;3.25;;;;;;;6.43;77.82;102787.47;5033885;28;20037;-42
2021/12/20 03:59:59;;;;;;;21.42;2.33;;;;;;;6.47;77.78;102785.41;5034028;28;20018;-42
2021/12/20 04:02:25;;;;;;;27.80;3.28;;;;;;;6.43;78.02;102784.78;5033732;28;20082;-42
2021/12/20 04:04:51;;;;;;;31.10;3.03;;;;;;;6.40;78.39;102792.13;5032234;28;20029;-42
2021/12/20 04:07:16;;;;;;;33.42;3.95;;;;;;;6.38;78.46;102789.59;5032574;28;20036;-42
2021/12/20 04:09:42;;;;;;;32.60;3.25;;;;;;;6.38;78.96;102787.75;5032226;28;20620;-42
2021/12/20 04:12:08;;;;;;;29.50;3.33;;;;;;;6.42;78.57;102792.91;5033507;28;20033;-43
2021/12/20 04:14:33;;;;;;;32.28;3.90;;;;;;;6.42;77.74;102793.75;5033609;28;20033;-42
2021/12/20 04:16:58;;;;;;;25.85;2.63;;;;;;;6.45;77.35;102798.03;5033299;28;20045;-42
2021/12/20 04:19:24;;;;;;;33.85;3.10;;;;;;;6.43;77.17;102794.63;5033502;28;20033;-42
2021/12/20 04:21:49;;;;;;;27.40;3.65;;;;;;;6.38;77.89;102787.75;5033156;28;20075;-42
2021/12/20 04:24:15;;;;;;;27.35;2.78;;;;;;;6.42;77.37;102791.06;5033542;28;20032;-42
2021/12/20 04:26:40;;;;;;;30.38;3.15;;;;;;;6.43;77.26;102783.94;5032046;28;20022;-42
2021/12/20 04:29:06;;;;;;;30.45;3.55;;;;;;;6.40;76.82;102789.47;5032157;28;20037;-42
2021/12/20 04:31:33;;;;;;;32.60;3.08;;;;;;;6.43;76.61;102789.28;5048314;28;20458;-42
2021/12/20 04:33:58;;;;;;;32.47;3.63;;;;;;;6.41;76.35;102796.53;5032708;28;20029;-43
2021/12/20 04:36:23;;;;;;;25.42;3.15;;;;;;;6.48;75.16;102790.66;5013409;28;20026;-42
2021/12/20 04:38:49;;;;;;;29.45;3.95;;;;;;;6.52;74.89;102788.63;5012951;28;20570;-43
2021/12/20 04:41:14;;;;;;;29.48;3.17;;;;;;;6.54;73.56;102786.69;5027683;28;20116;-43
2021/12/20 04:43:39;;;;;;;18.65;2.30;;;;;;;6.54;73.58;102786.69;5033024;28;20032;-41
2021/12/20 04:46:05;;;;;;;30.52;3.03;;;;;;;6.51;74.22;102795.78;5032842;28;20080;-42
2021/12/20 04:48:30;;;;;;;30.88;3.72;;;;;;;6.42;74.59;102793.75;5031434;28;20017;-42
2021/12/20 04:50:56;;;;;;;19.92;2.83;;;;;;;6.36;75.25;102789.69;5031182;28;20039;-42
2021/12/20 04:53:21;;;;;;;30.48;3.90;;;;;;;6.36;75.58;102792.34;5031718;28;20338;-42
2021/12/20 04:55:46;;;;;;;31.33;3.13;;;;;;;6.43;75.08;102802.66;5031480;28;20025;-43
2021/12/20 04:58:13;;;;;;;24.70;2.72;;;;;;;6.41;75.25;102796.53;5033059;28;20113;-42
2021/12/20 05:00:40;;;;;;;32.00;3.05;;;;;;;6.40;75.30;102779.66;5032072;28;20078;-43
2021/12/20 05:03:07;;;;;;;25.75;3.53;;;;;;;6.48;74.08;102787.16;5032733;28;20116;-43
2021/12/20 05:05:33;;;;;;;26.15;3.40;;;;;;;6.49;72.97;102789.69;5032269;28;20374;-43
2021/12/20 05:07:59;;;;;;;27.77;3.08;;;;;;;6.43;73.26;102789.28;5032490;28;20552;-42
2021/12/20 05:10:30;;;;;;;25.15;4.05;;;;;;;6.40;74.34;102785.00;5032149;28;20116;-42
2021/12/20 05:12:58;;;;;;;32.08;3.22;;;;;;;6.41;74.05;102791.19;5032416;28;20061;-42
2021/12/20 05:15:25;;;;;;;26.80;3.30;;;;;;;6.44;73.68;102788.31;5031985;28;20030;-42
2021/12/20 05:17:51;;;;;;;24.88;3.30;;;;;;;6.37;74.59;102788.75;5032472;28;20032;-43
2021/12/20 05:20:17;;;;;;;34.30;3.30;;;;;;;6.41;73.88;102785.84;5032285;28;20042;-43
2021/12/20 05:22:43;;;;;;;32.08;4.55;;;;;;;6.42;74.31;102787.56;5032356;28;20531;-43
2021/12/20 05:25:10;;;;;;;25.02;3.17;;;;;;;6.50;72.47;102791.41;5032298;28;20025;-43
2021/12/20 05:27:36;;;;;;;26.75;3.50;;;;;;;6.51;71.80;102800.28;5032494;28;20102;-44
2021/12/20 05:30:03;;;;;;;31.38;3.53;;;;;;;6.42;72.47;102798.25;5032250;28;20032;-43
2021/12/20 05:32:29;;;;;;;33.47;4.82;;;;;;;6.50;72.00;102802.13;5032314;28;20048;-44
2021/12/20 05:34:54;;;;;;;26.30;3.40;;;;;;;6.47;73.11;102796.09;5031360;28;20426;-43
2021/12/20 05:37:19;;;;;;;28.95;3.38;;;;;;;6.46;72.50;102794.41;5032447;28;20049;-43
2021/12/20 05:39:45;;;;;;;24.83;2.70;;;;;;;6.57;71.34;102799.84;5031744;28;20050;-44
2021/12/20 05:42:11;;;;;;;27.20;3.35;;;;;;;6.62;70.80;102803.06;5032613;28;20021;-43
2021/12/20 05:44:36;;;;;;;27.83;3.03;;;;;;;6.57;71.10;102802.53;5031884;28;20026;-43
2021/12/20 05:47:02;;;;;;;25.77;3.00;;;;;;;6.45;72.27;102808.72;5015796;28;20041;-42
2021/12/20 05:49:28;;;;;;;28.92;2.90;;;;;;;6.45;72.57;102798.91;5012484;28;20038;-43
2021/12/20 05:51:53;;;;;;;23.73;3.28;;;;;;;6.48;71.19;102800.50;5011901;28;20033;-42
2021/12/20 05:54:18;;;;;;;17.20;2.63;;;;;;;6.49;71.48;102804.88;5030934;28;20029;-42
2021/12/20 05:56:44;;;;;;;27.08;3.60;;;;;;;6.42;72.38;102801.78;5012671;28;20073;-41
2021/12/20 05:59:09;;;;;;;19.65;2.53;;;;;;;6.36;73.11;102800.38;5012380;28;20544;-42
2021/12/20 06:01:35;;;;;;;20.40;3.20;;;;;;;6.37;72.90;102802.13;5045781;28;20600;-42
2021/12/20 06:04:00;;;;;;;27.58;4.72;;;;;;;6.31;74.39;102802.53;5029416;28;20052;-42
2021/12/20 06:06:28;;;;;;;26.00;3.08;;;;;;;6.35;73.44;102809.38;5032282;28;20068;-43
2021/12/20 06:08:54;;;;;;;24.65;2.75;;;;;;;6.32;73.25;102801.56;5032146;28;20080;-42
2021/12/20 06:11:19;;;;;;;28.67;3.25;;;;;;;6.34;72.09;102802.31;5015301;28;20030;-42
2021/12/20 06:13:44;;;;;;;19.60;2.47;;;;;;;6.36;71.89;102808.41;5013484;28;20022;-41
2021/12/20 06:16:09;;;;;;;31.67;2.92;;;;;;;6.28;73.97;102808.09;5031278;28;20424;-42
2021/12/20 06:18:35;;;;;;;40.58;3.35;;;;;;;6.27;74.30;102805.53;5030992;28;20393;-43
2021/12/20 06:21:00;;;;;;;33.63;2.78;;;;;;;6.26;73.99;102815.34;5031355;28;20509;-43
2021/12/20 06:23:25;;;;;;;28.67;3.20;;;;;;;6.45;71.64;102808.72;5031365;28;20392;-43
2021/12/20 06:25:51;;;;;;;26.00;2.88;;;;;;;6.33;72.74;102800.59;5031953;28;20044;-42
2021/12/20 06:28:16;;;;;;;25.65;2.90;;;;;;;6.33;72.69;102811.31;5030113;28;20032;-42
2021/12/20 06:30:41;;;;;;;27.13;2.90;;;;;;;6.39;72.67;102810.00;5031036;28;20106;-42
2021/12/20 06:33:07;;;;;;;26.27;3.30;;;;;;;6.45;71.58;102800.69;5030583;28;20025;-43
2021/12/20 06:35:33;;;;;;;29.60;3.45;;;;;;;6.44;71.64;102801.69;5030282;28;20040;-43
2021/12/20 06:38:03;;;;;;;24.27;2.55;;;;;;;6.43;71.87;102805.31;5039671;28;20037;-42
2021/12/20 06:40:30;;;;;;;26.25;2.92;;;;;;;6.43;70.88;102810.69;5012780;28;20022;-43
2021/12/20 06:42:56;;;;;;;18.60;2.78;;;;;;;6.42;71.04;102807.13;5027429;28;20026;-43
2021/12/20 06:45:21;;;;;;;20.33;2.45;;;;;;;6.40;71.67;102805.50;5025630;28;20565;-42
2021/12/20 06:47:46;;;;;;;17.85;2.50;;;;;;;6.36;72.17;102808.41;5027490;28;20088;-43
2021/12/20 06:50:12;;;;;;;27.10;4.25;;;;;;;6.35;72.52;102814.72;5027439;28;20207;-43
2021/12/20 06:52:37;;;;;;;27.40;3.08;;;;;;;6.32;72.93;102814.94;5026802;28;20064;-44
2021/12/20 06:55:03;;;;;;;25.33;3.58;;;;;;;6.38;71.34;102819.88;5028072;28;20456;-43
2021/12/20 06:57:28;;;;;;;22.38;3.00;;;;;;;6.32;73.31;102819.44;5033590;28;20030;-43
2021/12/20 06:59:54;;;;;;;25.42;2.83;;;;;;;6.26;73.93;102820.69;5036439;28;20033;-44
2021/12/20 07:02:19;;;;;;;25.45;3.42;;;;;;;6.24;74.26;102817.28;5033977;28;20063;-42
2021/12/20 07:04:45;;;;;;;26.17;2.72;;;;;;;6.23;74.28;102814.72;5049515;28;20034;-43
2021/12/20 07:07:10;;;;;;;31.60;3.53;;;;;;;6.25;73.76;102810.97;5034147;28;20037;-44
2021/12/20 07:09:35;;;;;;;27.17;3.10;;;;;;;6.26;75.44;102819.84;5034652;28;20029;-42
2021/12/20 07:12:03;;;;;;;23.80;2.83;;;;;;;6.32;74.08;102825.66;5034245;28;20061;-44
2021/12/20 07:14:28;;;;;;;23.10;3.17;;;;;;;6.31;73.83;102818.56;5034749;28;20025;-43
2021/12/20 07:16:55;;;;;;;41.15;5.28;;;;;;;6.29;74.48;102814.28;5034683;28;20021;-41
2021/12/20 07:19:20;;;;;;;25.20;2.55;;;;;;;6.31;74.45;102812.38;5030143;28;20034;-42
2021/12/20 07:21:45;;;;;;;25.15;3.30;;;;;;;6.31;74.22;102807.03;5033526;28;20072;-42
2021/12/20 07:24:11;;;;;;;34.58;3.92;;;;;;;6.31;73.60;102805.19;5033645;28;20025;-42
2021/12/20 07:26:36;;;;;;;22.00;2.45;;;;;;;6.35;72.85;102806.72;5033604;28;20026;-42
2021/12/20 07:29:01;;;;;;;26.00;3.53;;;;;;;6.43;72.88;102810.69;5032923;28;20052;-42
2021/12/20 07:31:27;;;;;;;27.48;3.40;;;;;;;6.38;73.29;102814.50;5031878;28;20041;-43
2021/12/20 07:33:53;;;;;;;26.48;3.38;;;;;;;6.34;74.56;102813.00;5033418;28;20040;-43
2021/12/20 07:36:21;;;;;;;27.45;3.65;;;;;;;6.28;74.32;102808.09;5033325;28;20473;-44
2021/12/20 07:38:47;;;;;;;29.55;2.90;;;;;;;6.28;75.06;102813.44;5033406;28;20053;-43
2021/12/20 07:41:12;;;;;;;29.35;2.70;;;;;;;6.28;75.27;102817.94;5032637;28;20036;-43
2021/12/20 07:43:37;;;;;;;25.90;2.95;;;;;;;6.30;73.67;102816.88;5014767;28;20036;-43
2021/12/20 07:46:03;;;;;;;20.60;2.78;;;;;;;6.29;73.82;102819.63;5023897;28;20033;-42
2021/12/20 07:48:28;;;;;;;22.17;2.75;;;;;;;6.25;74.54;102821.66;5021652;28;20067;-43
2021/12/20 07:50:57;;;;;;;22.30;2.55;;;;;;;6.22;74.99;102823.72;5020574;28;20025;-43
2021/12/20 07:53:23;;;;;;;22.95;3.20;;;;;;;6.26;73.25;102820.69;5031651;28;20409;-43
2021/12/20 07:55:49;;;;;;;26.63;2.63;;;;;;;6.26;74.05;102826.03;5033531;28;20026;-43
2021/12/20 07:58:14;;;;;;;28.65;3.08;;;;;;;6.32;73.67;102822.97;5044642;28;20040;-43
2021/12/20 08:00:39;;;;;;;24.52;3.90;;;;;;;6.38;72.30;102822.53;5025667;28;20407;-43
2021/12/20 08:03:05;;;;;;;27.42;3.20;;;;;;;6.38;71.76;102819.00;5028220;28;20034;-43
2021/12/20 08:05:32;;;;;;;17.92;3.10;;;;;;;6.33;73.81;102827.34;5033252;28;20550;-43
2021/12/20 08:07:58;;;;;;;20.27;2.80;;;;;;;6.32;73.06;102828.31;5033498;28;20124;-43
2021/12/20 08:10:25;;;;;;;16.40;2.33;;;;;;;6.39;71.77;102828.72;5032959;28;20108;-43
2021/12/20 08:12:51;;;;;;;26.88;2.40;;;;;;;6.51;70.08;102835.91;5030225;28;20021;-43
2021/12/20 08:15:17;;;;;;;24.77;2.60;;;;;;;6.58;69.50;102839.91;5027311;28;20373;-43
2021/12/20 08:17:42;;;;;;;15.57;2.10;;;;;;;6.56;68.68;102840.97;5025025;28;20038;-43
2021/12/20 08:20:09;;;;;;;28.85;3.20;;;;;;;6.56;69.47;102840.97;5028431;28;20037;-43
2021/12/20 08:22:34;;;;;;;25.17;2.70;;;;;;;6.56;69.40;102843.63;5031591;28;20033;-42
2021/12/20 08:25:00;;;;;;;19.05;2.53;;;;;;;6.58;69.17;102844.34;5046202;28;20433;-42
2021/12/20 08:27:26;;;;;;;20.33;2.08;;;;;;;6.57;69.36;102845.34;5031296;28;20120;-42
2021/12/20 08:29:51;;;;;;;16.55;2.20;;;;;;;6.52;69.90;102840.28;5028915;28;21084;-43
2021/12/20 08:32:17;;;;;;;21.55;2.13;;;;;;;6.52;69.84;102844.78;5026773;28;20057;-43
2021/12/20 08:34:42;;;;;;;21.35;2.60;;;;;;;6.44;70.31;102852.50;5028979;28;20025;-43
2021/12/20 08:37:08;;;;;;;13.18;1.80;;;;;;;6.43;70.60;102848.13;5031989;28;20415;-43
2021/12/20 08:39:34;;;;;;;20.55;2.40;;;;;;;6.52;71.13;102847.47;5029289;28;20409;-43
2021/12/20 08:42:00;;;;;;;10.18;2.10;;;;;;;6.49;70.70;102856.56;5027367;28;20480;-44
2021/12/20 08:44:26;;;;;;;26.17;2.35;;;;;;;6.52;69.93;102847.47;5032890;28;20079;-43
2021/12/20 08:46:52;;;;;;;14.93;2.10;;;;;;;6.49;70.46;102845.88;5030741;28;20026;-41
2021/12/20 08:49:18;;;;;;;19.75;2.30;;;;;;;6.52;69.59;102847.47;5020838;28;20052;-41
2021/12/20 08:51:45;;;;;;;21.23;1.83;;;;;;;6.53;69.49;102843.81;5032703;28;20029;-42
2021/12/20 08:54:10;;;;;;;14.10;1.87;;;;;;;6.54;69.30;102845.56;5025844;28;20447;-43
2021/12/20 08:56:36;;;;;;;11.98;1.65;;;;;;;6.57;69.41;102845.34;5012581;28;20029;-43
2021/12/20 08:59:01;;;;;;;16.98;2.08;;;;;;;6.60;69.32;102855.81;5018641;28;20021;-42
2021/12/20 09:01:26;;;;;;;18.67;2.40;;;;;;;6.64;68.41;102851.13;5031472;28;20128;-43
2021/12/20 09:03:52;;;;;;;15.73;2.10;;;;;;;6.58;68.48;102852.38;5031945;28;20583;-43
2021/12/20 09:06:21;;;;;;;14.15;2.25;;;;;;;6.58;69.64;102857.75;5031802;28;20087;-44
2021/12/20 09:08:47;;;;;;;12.20;2.15;;;;;;;6.55;69.28;102856.13;5033239;28;20117;-43
2021/12/20 09:11:12;;;;;;;16.50;3.22;;;;;;;6.60;69.29;102855.81;5025785;28;20064;-43
2021/12/20 09:13:38;;;;;;;18.20;2.45;;;;;;;6.56;69.11;102859.69;5026320;28;20037;-43
2021/12/20 09:16:03;;;;;;;18.95;2.00;;;;;;;6.56;70.15;102865.03;5033084;28;20057;-43
2021/12/20 09:18:29;;;;;;;15.13;2.53;;;;;;;6.60;70.45;102855.81;5032791;28;20026;-43
2021/12/20 09:20:55;;;;;;;12.15;2.50;;;;;;;6.63;70.18;102852.94;5030872;28;20069;-43
2021/12/20 09:23:21;;;;;;;16.83;2.20;;;;;;;6.70;70.42;102859.56;5032603;28;20415;-43
2021/12/20 09:25:47;;;;;;;20.85;2.45;;;;;;;6.72;70.23;102860.31;5032924;28;20457;-43
2021/12/20 09:28:14;;;;;;;19.42;2.53;;;;;;;6.70;69.76;102856.91;5032905;28;20068;-43
2021/12/20 09:30:42;;;;;;;17.77;2.30;;;;;;;6.68;70.22;102856.13;5031930;28;20033;-42
2021/12/20 09:33:08;;;;;;;17.40;2.13;;;;;;;6.71;70.82;102863.94;5032857;28;20083;-42
2021/12/20 09:35:34;;;;;;;23.58;2.38;;;;;;;6.75;71.01;102853.91;5032579;28;20030;-42
2021/12/20 09:38:00;;;;;;;21.92;2.55;;;;;;;6.78;70.53;102862.56;5032476;28;20037;-43
2021/12/20 09:41:15;;;;;;;34.53;3.17;;;;;;;6.79;71.53;102858.94;5031578;28;20137;-43
2021/12/20 09:43:13;;;;;;;22.55;3.20;;;;;;;6.85;71.53;102872.84;5024614;28;20566;-43
2021/12/20 09:45:42;;;;;;;18.38;2.63;;;;;;;6.87;71.19;102868.22;5032373;28;20481;-44
2021/12/20 09:48:07;;;;;;;27.35;2.97;;;;;;;6.80;71.47;102868.66;5031014;28;20018;-42
2021/12/20 09:50:33;;;;;;;16.35;2.30;;;;;;;6.74;72.14;102876.25;5032382;28;20033;-43
2021/12/20 09:53:04;;;;;;;21.45;3.15;;;;;;;6.59;72.17;102873.69;5031263;28;20045;-44
2021/12/20 09:55:31;;;;;;;18.45;2.00;;;;;;;6.65;72.80;102872.41;5032459;28;20041;-41
2021/12/20 09:58:00;;;;;;;32.90;2.83;;;;;;;6.65;73.32;102884.94;5027959;28;20113;-42
2021/12/20 10:00:26;;;;;;;16.65;2.20;;;;;;;6.63;72.75;102881.50;5014869;28;20303;-43
2021/12/20 10:02:51;;;;;;;17.02;2.30;;;;;;;6.64;73.17;102878.75;5039009;28;20492;-42
2021/12/20 10:05:19;;;;;;;17.02;2.22;;;;;;;6.68;72.55;102874.03;5045306;28;20029;-42
2021/12/20 10:07:50;;;;;;;18.48;2.55;;;;;;;6.69;73.03;102878.41;5020968;28;20026;-42
2021/12/20 10:10:36;;;;;;;13.95;2.00;;;;;;;6.67;73.16;102875.84;5023827;28;20026;-43
2021/12/20 10:13:02;;;;;;;17.45;1.95;;;;;;;6.69;73.91;102879.28;5021572;28;20103;-43
2021/12/20 10:15:38;;;;;;;19.27;2.22;;;;;;;6.73;74.34;102875.41;5029674;28;20045;-42
2021/12/20 10:18:07;;;;;;;17.25;2.25;;;;;;;6.81;73.68;102875.72;5027868;28;20116;-42
2021/12/20 10:20:32;;;;;;;;;;;;;;;6.93;73.57;102889.22;5022512;28;20115;-42
2021/12/20 10:23:09;;;;;;;13.95;2.15;;;;;;;7.03;72.24;102888.47;5011227;28;19914;-43
2021/12/20 10:25:35;;;;;;;18.13;2.08;;;;;;;6.99;72.82;102881.59;5027004;28;20036;-43
2021/12/20 10:28:11;;;;;;;21.25;3.25;;;;;;;6.91;73.69;102880.44;5032232;28;20034;-42
2021/12/20 10:30:42;;;;;;;19.13;2.70;;;;;;;6.95;73.52;102877.47;5032034;28;20022;-43
2021/12/20 10:33:13;;;;;;;28.38;3.00;;;;;;;7.13;73.27;102885.97;5034013;28;20116;-43
2021/12/20 10:35:44;;;;;;;14.27;2.25;;;;;;;7.23;72.35;102876.31;5036235;28;20036;-42
2021/12/20 10:38:23;;;;;;;13.68;3.25;;;;;;;7.33;72.21;102875.69;5030774;28;20057;-43
2021/12/20 10:41:02;;;;;;;24.98;2.90;;;;;;;7.48;71.02;102874.56;5021749;28;20068;-42
2021/12/20 10:43:33;;;;;;;15.85;2.60;;;;;;;7.54;70.72;102878.63;5035751;28;20040;-43
2021/12/20 10:46:08;;;;;;;24.40;2.58;;;;;;;7.54;69.17;102878.63;5033839;28;20030;-43
2021/12/20 10:48:33;;;;;;;11.32;1.90;;;;;;;7.56;70.55;102876.69;5034361;28;20029;-43
2021/12/20 10:50:59;;;;;;;12.90;2.22;;;;;;;7.65;70.46;102882.22;5022032;28;20030;-42
2021/12/20 10:53:26;;;;;;;13.25;2.17;;;;;;;7.79;69.61;102873.13;5035460;28;20025;-44
2021/12/20 10:55:51;;;;;;;12.85;2.20;;;;;;;7.84;67.72;102886.22;5026602;28;20088;-43
2021/12/20 10:58:19;;;;;;;15.10;2.13;;;;;;;7.70;67.43;102880.06;5014344;28;20394;-43
2021/12/20 11:00:45;;;;;;;17.45;2.58;;;;;;;7.68;68.42;102881.97;5016235;28;20030;-44
2021/12/20 11:05:57;;;;;;;14.05;2.08;;;;;;;7.74;68.29;102879.81;5015492;28;20041;-42
2021/12/20 11:11:12;;;;;;;11.02;1.92;;;;;;;7.81;66.95;102871.22;5035853;28;20049;-44
2021/12/20 11:13:39;;;;;;;21.48;2.92;;;;;;;7.86;66.86;102873.56;5035167;28;20127;-42
2021/12/20 11:16:27;;;;;;;7.55;1.83;;;;;;;7.77;65.44;102868.91;5033945;28;20030;-43
2021/12/20 11:19:36;;;;;;;14.23;1.58;;;;;;;7.65;65.45;102878.69;5035428;28;20064;-43
2021/12/20 11:22:20;;;;;;;9.43;1.75;;;;;;;7.59;67.06;102871.94;5033705;28;20053;-43
2021/12/20 11:24:50;;;;;;;7.57;1.58;;;;;;;7.51;66.53;102868.13;5030307;28;20032;-43
2021/12/20 11:27:24;;;;;;;17.00;1.30;;;;;;;7.54;66.04;102873.25;5028072;28;20045;-43
2021/12/20 11:29:52;;;;;;;11.02;1.50;;;;;;;7.52;66.36;102869.84;5027499;28;20057;-44
2021/12/20 11:32:17;;;;;;;;;;;;;;;7.51;67.21;102866.31;5034212;28;20025;-44
2021/12/20 11:34:43;;;;;;;10.57;1.52;;;;;;;7.56;66.85;102865.97;5034903;28;19994;-43
2021/12/20 11:37:10;;;;;;;14.23;1.45;;;;;;;7.47;67.42;102862.13;5034919;28;20021;-44
2021/12/20 11:39:36;;;;;;;8.88;1.58;;;;;;;7.49;67.58;102862.88;5032778;28;20111;-43
2021/12/20 11:42:02;;;;;;;11.75;1.75;;;;;;;7.60;65.89;102865.59;5021900;28;20480;-43
2021/12/20 11:44:29;;;;;;;14.80;1.75;;;;;;;7.52;65.65;102859.97;5018671;28;20033;-43
2021/12/20 11:47:27;;;;;;;12.85;1.80;;;;;;;7.49;66.86;102868.22;5033482;28;20499;-44